createdAt,value
2017-04-04T00:00:09.517Z,62.80
2017-04-04T00:01:07.654Z,62.80
2017-04-04T00:02:05.324Z,62.70
2017-04-04T00:03:03.995Z,62.50
2017-04-04T00:04:01.671Z,62.40
2017-04-04T00:04:59.348Z,62.50
2017-04-04T00:05:57.451Z,62.60
2017-04-04T00:06:55.179Z,63.10
2017-04-04T00:07:53.891Z,63.30
2017-04-04T00:08:52.639Z,63.40
2017-04-04T00:09:51.842Z,63.60
2017-04-04T00:10:50.330Z,63.90
2017-04-04T00:11:48.443Z,64.20
2017-04-04T00:12:46.176Z,64.50
2017-04-04T00:13:43.878Z,64.90
2017-04-04T00:14:41.570Z,64.70
2017-04-04T00:15:39.700Z,64.50
2017-04-04T00:16:37.389Z,64.70
2017-04-04T00:17:36.389Z,64.50
2017-04-04T00:18:34.196Z,64.40
2017-04-04T00:19:31.939Z,64.90
2017-04-04T00:20:29.676Z,65.00
2017-04-04T00:21:27.656Z,65.00
2017-04-04T00:22:25.322Z,65.30
2017-04-04T00:23:23.030Z,65.80
2017-04-04T00:24:20.761Z,65.60
2017-04-04T00:25:18.596Z,65.80
2017-04-04T00:26:16.339Z,65.50
2017-04-04T00:27:14.056Z,65.30
2017-04-04T00:28:11.828Z,65.20
2017-04-04T00:29:09.511Z,64.60
2017-04-04T00:30:07.320Z,64.50
2017-04-04T00:31:04.987Z,64.40
2017-04-04T00:32:02.726Z,64.20
2017-04-04T00:33:00.441Z,64.20
2017-04-04T00:33:58.783Z,64.00
2017-04-04T00:34:56.503Z,63.80
2017-04-04T00:35:54.582Z,63.60
2017-04-04T00:36:52.273Z,63.40
2017-04-04T00:37:50.991Z,63.50
2017-04-04T00:38:48.690Z,63.50
2017-04-04T00:39:46.334Z,63.10
2017-04-04T00:40:44.008Z,63.30
2017-04-04T00:41:42.501Z,63.70
2017-04-04T00:42:40.151Z,63.40
2017-04-04T00:43:37.851Z,63.20
2017-04-04T00:44:35.499Z,63.10
2017-04-04T00:45:33.189Z,63.40
2017-04-04T00:46:31.727Z,63.50
2017-04-04T00:47:29.835Z,63.40
2017-04-04T00:48:27.592Z,63.60
2017-04-04T00:49:25.315Z,63.40
2017-04-04T00:50:23.763Z,63.50
2017-04-04T00:51:21.415Z,63.80
2017-04-04T00:52:19.139Z,63.70
2017-04-04T00:53:17.219Z,63.60
2017-04-04T00:54:14.978Z,63.60
2017-04-04T00:55:12.707Z,63.30
2017-04-04T00:56:10.483Z,63.30
2017-04-04T00:57:08.179Z,63.60
2017-04-04T00:58:07.219Z,63.30
2017-04-04T00:59:04.975Z,63.20
2017-04-04T01:00:03.187Z,63.50
2017-04-04T01:01:00.895Z,63.40
2017-04-04T01:01:58.598Z,63.30
2017-04-04T01:02:56.294Z,63.10
2017-04-04T01:03:54.020Z,63.00
2017-04-04T01:04:52.528Z,63.10
2017-04-04T01:05:50.522Z,63.30
2017-04-04T01:06:48.242Z,63.50
2017-04-04T01:07:45.968Z,63.90
2017-04-04T01:08:43.631Z,64.00
2017-04-04T01:09:41.338Z,63.90
2017-04-04T01:10:39.272Z,63.90
2017-04-04T01:11:36.946Z,63.80
2017-04-04T01:12:34.662Z,63.80
2017-04-04T01:13:32.315Z,63.70
2017-04-04T01:14:30.062Z,63.80
2017-04-04T01:15:27.821Z,63.80
2017-04-04T01:16:25.536Z,63.90
2017-04-04T01:17:24.613Z,63.80
2017-04-04T01:18:22.266Z,63.70
2017-04-04T01:19:20.799Z,64.00
2017-04-04T01:20:18.910Z,63.80
2017-04-04T01:21:16.595Z,63.70
2017-04-04T01:22:15.123Z,63.90
2017-04-04T01:23:13.742Z,63.90
2017-04-04T01:24:12.434Z,64.10
2017-04-04T01:25:10.790Z,63.90
2017-04-04T01:26:08.844Z,63.90
2017-04-04T01:27:06.539Z,63.80
2017-04-04T01:28:04.216Z,63.90
2017-04-04T01:29:01.934Z,63.70
2017-04-04T01:29:59.647Z,63.70
2017-04-04T01:30:57.335Z,63.70
2017-04-04T01:31:55.066Z,63.80
2017-04-04T01:32:52.775Z,64.00
2017-04-04T01:33:50.491Z,63.80
2017-04-04T01:34:48.147Z,63.90
2017-04-04T01:35:45.888Z,63.70
2017-04-04T01:36:43.630Z,63.70
2017-04-04T01:37:41.351Z,63.70
2017-04-04T01:38:40.538Z,63.70
2017-04-04T01:39:38.231Z,63.80
2017-04-04T01:40:36.000Z,63.90
2017-04-04T01:41:33.643Z,63.80
2017-04-04T01:42:31.322Z,64.00
2017-04-04T01:43:29.039Z,63.90
2017-04-04T01:44:26.764Z,64.10
2017-04-04T01:45:24.940Z,64.00
2017-04-04T01:46:22.673Z,63.90
2017-04-04T01:47:20.364Z,64.10
2017-04-04T01:48:18.546Z,64.20
2017-04-04T01:49:16.195Z,64.10
2017-04-04T01:50:13.932Z,64.20
2017-04-04T01:51:11.636Z,64.40
2017-04-04T01:52:09.331Z,64.40
2017-04-04T01:53:07.135Z,64.40
2017-04-04T01:54:04.787Z,64.30
2017-04-04T01:55:02.566Z,64.30
2017-04-04T01:56:00.231Z,64.30
2017-04-04T01:56:58.235Z,64.70
2017-04-04T01:57:55.973Z,64.50
2017-04-04T01:58:53.651Z,64.50
2017-04-04T01:59:51.383Z,64.50
2017-04-04T02:00:49.202Z,64.60
2017-04-04T02:01:47.566Z,64.50
2017-04-04T02:02:45.259Z,64.40
2017-04-04T02:03:42.935Z,64.40
2017-04-04T02:04:40.646Z,64.30
2017-04-04T02:05:38.659Z,64.30
2017-04-04T02:06:36.472Z,64.70
2017-04-04T02:07:34.162Z,65.10
2017-04-04T02:08:31.890Z,65.20
2017-04-04T02:09:29.651Z,65.10
2017-04-04T02:10:27.956Z,65.20
2017-04-04T02:11:25.659Z,64.90
2017-04-04T02:12:23.428Z,65.00
2017-04-04T02:13:21.222Z,64.90
2017-04-04T02:14:18.930Z,65.00
2017-04-04T02:15:16.964Z,65.10
2017-04-04T02:16:14.644Z,65.20
2017-04-04T02:17:12.326Z,65.30
2017-04-04T02:18:10.012Z,65.00
2017-04-04T02:19:07.676Z,64.90
2017-04-04T02:20:05.408Z,65.00
2017-04-04T02:21:13.217Z,64.90
2017-04-04T02:22:17.274Z,64.70
2017-04-04T02:23:30.033Z,65.10
2017-04-04T02:24:36.316Z,65.10
2017-04-04T02:25:45.591Z,65.30
2017-04-04T02:27:00.803Z,65.20
2017-04-04T02:28:04.483Z,65.10
2017-04-04T02:29:02.160Z,65.00
2017-04-04T02:29:59.878Z,65.20
2017-04-04T02:31:11.367Z,65.00
2017-04-04T02:32:35.883Z,64.90
2017-04-04T02:33:33.647Z,64.90
2017-04-04T02:34:31.347Z,65.00
2017-04-04T02:35:36.327Z,65.10
2017-04-04T02:36:34.028Z,64.90
2017-04-04T02:37:31.755Z,65.00
2017-04-04T02:38:30.133Z,65.10
2017-04-04T02:39:35.619Z,65.10
2017-04-04T02:40:33.400Z,65.30
2017-04-04T02:41:32.010Z,65.40
2017-04-04T02:42:36.734Z,65.40
2017-04-04T02:43:35.059Z,65.50
2017-04-04T02:44:32.758Z,65.40
2017-04-04T02:45:30.876Z,65.40
2017-04-04T02:46:28.559Z,65.10
2017-04-04T02:47:26.353Z,64.90
2017-04-04T02:48:24.047Z,64.70
2017-04-04T02:50:33.367Z,64.50
2017-04-04T02:52:33.823Z,64.50
2017-04-04T02:53:41.230Z,64.50
2017-04-04T02:54:38.921Z,64.80
2017-04-04T02:55:38.511Z,65.20
2017-04-04T02:56:36.207Z,65.10
2017-04-04T02:59:47.124Z,65.00
2017-04-04T03:00:44.872Z,65.30
2017-04-04T03:01:43.247Z,65.60
2017-04-04T03:02:40.963Z,65.60
2017-04-04T03:03:38.631Z,65.40
2017-04-04T03:04:36.355Z,65.40
2017-04-04T03:05:34.083Z,65.60
2017-04-04T03:06:32.247Z,65.60
2017-04-04T03:07:29.943Z,66.00
2017-04-04T03:08:27.634Z,65.90
2017-04-04T03:09:25.311Z,65.90
2017-04-04T03:10:23.470Z,65.90
2017-04-04T03:11:21.222Z,66.10
2017-04-04T03:12:18.938Z,65.60
2017-04-04T03:13:16.681Z,66.10
2017-04-04T03:14:14.352Z,66.00
2017-04-04T03:15:13.055Z,66.40
2017-04-04T03:16:14.925Z,66.20
2017-04-04T03:17:12.670Z,66.00
2017-04-04T03:18:10.337Z,66.00
2017-04-04T03:19:08.028Z,66.80
2017-04-04T03:20:05.868Z,66.90
2017-04-04T03:21:03.586Z,66.70
2017-04-04T03:22:01.298Z,66.70
2017-04-04T03:22:58.998Z,66.80
2017-04-04T03:23:56.680Z,66.70
2017-04-04T03:24:54.950Z,67.20
2017-04-04T03:25:53.520Z,66.70
2017-04-04T03:26:52.022Z,66.80
2017-04-04T03:27:49.668Z,67.00
2017-04-04T03:28:47.315Z,67.40
2017-04-04T03:29:45.018Z,67.60
2017-04-04T03:30:43.259Z,67.20
2017-04-04T03:31:40.948Z,66.60
2017-04-04T03:32:38.619Z,66.40
2017-04-04T03:33:37.132Z,66.40
2017-04-04T03:34:34.778Z,66.10
2017-04-04T03:35:32.531Z,66.10
2017-04-04T03:36:30.570Z,66.50
2017-04-04T03:37:28.220Z,67.60
2017-04-04T03:38:25.945Z,68.20
2017-04-04T03:39:23.627Z,68.80
2017-04-04T03:40:21.342Z,69.50
2017-04-04T03:41:19.003Z,69.60
2017-04-04T03:42:16.706Z,71.30
2017-04-04T03:43:14.379Z,71.30
2017-04-04T03:44:12.051Z,71.50
2017-04-04T03:45:09.779Z,72.30
2017-04-04T03:46:07.515Z,72.80
2017-04-04T03:47:05.187Z,73.10
2017-04-04T03:48:03.232Z,73.40
2017-04-04T03:49:00.905Z,72.80
2017-04-04T03:49:58.550Z,72.60
2017-04-04T03:50:56.296Z,72.30
2017-04-04T03:51:54.986Z,72.40
2017-04-04T03:52:52.680Z,71.20
2017-04-04T03:53:50.382Z,71.20
2017-04-04T03:54:48.079Z,72.00
2017-04-04T03:55:47.423Z,71.50
2017-04-04T03:56:45.618Z,70.90
2017-04-04T03:57:43.314Z,70.90
2017-04-04T03:58:41.051Z,70.70
2017-04-04T03:59:38.735Z,71.00
2017-04-04T04:00:36.486Z,71.00
2017-04-04T04:01:35.256Z,71.10
2017-04-04T04:02:32.959Z,70.50
2017-04-04T04:03:30.627Z,69.70
2017-04-04T04:04:28.334Z,70.10
2017-04-04T04:05:26.507Z,69.60
2017-04-04T04:06:24.158Z,69.80
2017-04-04T04:07:21.805Z,69.20
2017-04-04T04:08:19.475Z,69.60
2017-04-04T04:09:17.219Z,70.00
2017-04-04T04:10:16.894Z,69.50
2017-04-04T04:11:14.579Z,69.30
2017-04-04T04:12:12.232Z,69.50
2017-04-04T04:13:09.886Z,70.50
2017-04-04T04:14:07.583Z,71.80
2017-04-04T04:15:05.600Z,71.10
2017-04-04T04:16:03.287Z,70.40
2017-04-04T04:17:00.948Z,70.20
2017-04-04T04:17:59.164Z,71.60
2017-04-04T04:18:56.859Z,70.50
2017-04-04T04:19:54.526Z,70.50
2017-04-04T04:20:52.544Z,70.70
2017-04-04T04:21:50.184Z,71.40
2017-04-04T04:22:47.887Z,71.10
2017-04-04T04:23:45.562Z,70.70
2017-04-04T04:24:43.250Z,71.90
2017-04-04T04:25:40.978Z,71.20
2017-04-04T04:26:39.139Z,71.00
2017-04-04T04:27:37.331Z,70.90
2017-04-04T04:28:34.985Z,70.70
2017-04-04T04:29:32.647Z,72.00
2017-04-04T04:30:30.343Z,71.20
2017-04-04T04:31:28.026Z,71.00
2017-04-04T04:32:26.336Z,71.10
2017-04-04T04:33:24.655Z,71.30
2017-04-04T04:34:22.320Z,71.20
2017-04-04T04:35:20.320Z,71.60
2017-04-04T04:36:17.988Z,71.80
2017-04-04T04:37:16.331Z,71.90
2017-04-04T04:38:14.043Z,71.60
2017-04-04T04:39:11.703Z,71.50
2017-04-04T04:40:09.486Z,71.80
2017-04-04T04:41:08.111Z,71.90
2017-04-04T04:42:05.821Z,72.10
2017-04-04T04:43:04.504Z,72.10
2017-04-04T04:44:02.179Z,72.60
2017-04-04T04:44:59.900Z,72.90
2017-04-04T04:45:58.508Z,72.50
2017-04-04T04:46:56.171Z,72.20
2017-04-04T04:47:53.850Z,72.40
2017-04-04T04:48:51.524Z,72.30
2017-04-04T04:49:49.199Z,72.20
2017-04-04T04:50:48.075Z,72.40
2017-04-04T04:51:45.767Z,71.90
2017-04-04T04:52:43.423Z,71.90
2017-04-04T04:53:41.134Z,71.10
2017-04-04T04:54:38.806Z,70.40
2017-04-04T04:55:36.548Z,71.20
2017-04-04T04:56:34.614Z,71.20
2017-04-04T04:57:32.944Z,71.40
2017-04-04T04:58:30.611Z,71.60
2017-04-04T04:59:28.294Z,70.90
2017-04-04T05:00:26.086Z,71.70
2017-04-04T05:01:23.771Z,72.00
2017-04-04T05:02:21.852Z,71.80
2017-04-04T05:03:19.551Z,70.80
2017-04-04T05:04:17.177Z,72.00
2017-04-04T05:05:14.923Z,71.40
2017-04-04T05:06:12.651Z,71.10
2017-04-04T05:07:10.380Z,71.90
2017-04-04T05:08:08.105Z,72.10
2017-04-04T05:09:05.862Z,71.60
2017-04-04T05:10:03.628Z,71.40
2017-04-04T05:11:01.256Z,71.50
2017-04-04T05:11:58.917Z,71.10
2017-04-04T05:12:56.600Z,71.10
2017-04-04T05:13:54.571Z,70.50
2017-04-04T05:14:52.257Z,70.70
2017-04-04T05:15:49.991Z,71.10
2017-04-04T05:16:47.686Z,70.70
2017-04-04T05:17:45.343Z,70.60
2017-04-04T05:18:43.024Z,70.60
2017-04-04T05:19:41.124Z,70.50
2017-04-04T05:20:39.487Z,70.50
2017-04-04T05:21:37.167Z,69.90
2017-04-04T05:22:34.808Z,70.00
2017-04-04T05:23:32.436Z,70.70
2017-04-04T05:24:31.235Z,70.40
2017-04-04T05:25:29.279Z,70.10
2017-04-04T05:26:26.975Z,70.30
2017-04-04T05:27:24.703Z,70.10
2017-04-04T05:28:22.396Z,69.80
2017-04-04T05:29:20.074Z,69.90
2017-04-04T05:30:17.822Z,70.30
2017-04-04T05:31:15.516Z,69.90
2017-04-04T05:32:13.788Z,70.10
2017-04-04T05:33:11.444Z,70.30
2017-04-04T05:34:09.108Z,70.30
2017-04-04T05:35:06.941Z,69.90
2017-04-04T05:36:05.352Z,70.10
2017-04-04T05:37:03.168Z,70.00
2017-04-04T05:38:00.831Z,69.80
2017-04-04T05:38:58.466Z,69.30
2017-04-04T05:39:56.132Z,69.10
2017-04-04T05:40:54.431Z,69.20
2017-04-04T05:41:53.031Z,69.20
2017-04-04T05:42:51.756Z,69.50
2017-04-04T05:43:49.374Z,68.90
2017-04-04T05:44:47.022Z,69.60
2017-04-04T05:45:44.755Z,69.30
2017-04-04T05:46:43.362Z,68.90
2017-04-04T05:47:41.350Z,69.40
2017-04-04T05:48:39.320Z,69.20
2017-04-04T05:49:37.002Z,69.70
2017-04-04T05:50:34.699Z,69.30
2017-04-04T05:51:34.455Z,69.30
2017-04-04T05:52:32.093Z,68.90
2017-04-04T05:53:29.764Z,69.80
2017-04-04T05:54:27.631Z,69.70
2017-04-04T05:55:25.351Z,69.90
2017-04-04T05:56:23.007Z,69.40
2017-04-04T05:57:20.692Z,69.50
2017-04-04T05:58:18.342Z,69.90
2017-04-04T05:59:16.731Z,69.30
2017-04-04T06:00:14.775Z,69.50
2017-04-04T06:01:12.457Z,69.40
2017-04-04T06:02:10.147Z,68.60
2017-04-04T06:03:07.810Z,68.90
2017-04-04T06:04:05.495Z,69.30
2017-04-04T06:05:03.850Z,68.70
2017-04-04T06:06:01.907Z,68.50
2017-04-04T06:06:59.552Z,68.20
2017-04-04T06:07:57.251Z,68.10
2017-04-04T06:08:55.603Z,68.10
2017-04-04T06:09:53.254Z,68.00
2017-04-04T06:10:50.995Z,68.40
2017-04-04T06:11:50.159Z,68.20
2017-04-04T06:12:48.635Z,68.00
2017-04-04T06:13:46.301Z,68.70
2017-04-04T06:14:44.063Z,68.20
2017-04-04T06:15:41.766Z,68.20
2017-04-04T06:16:39.440Z,68.10
2017-04-04T06:17:37.454Z,67.80
2017-04-04T06:18:35.127Z,67.70
2017-04-04T06:19:32.851Z,67.90
2017-04-04T06:20:30.580Z,67.40
2017-04-04T06:21:28.664Z,67.80
2017-04-04T06:22:26.363Z,67.80
2017-04-04T06:23:24.175Z,67.50
2017-04-04T06:24:21.990Z,67.40
2017-04-04T06:25:19.754Z,66.90
2017-04-04T06:26:17.463Z,67.20
2017-04-04T06:27:15.125Z,66.90
2017-04-04T06:28:12.783Z,67.20
2017-04-04T06:29:11.284Z,67.20
2017-04-04T06:30:09.967Z,68.00
2017-04-04T06:31:07.658Z,67.50
2017-04-04T06:32:06.166Z,67.80
2017-04-04T06:33:03.901Z,66.90
2017-04-04T06:34:01.582Z,66.50
2017-04-04T06:34:59.605Z,65.70
2017-04-04T06:35:57.914Z,65.80
2017-04-04T06:36:55.583Z,65.40
2017-04-04T06:37:53.312Z,65.00
2017-04-04T06:38:50.963Z,65.50
2017-04-04T06:39:48.659Z,65.00
2017-04-04T06:40:46.474Z,65.40
2017-04-04T06:41:44.154Z,65.00
2017-04-04T06:42:41.811Z,65.50
2017-04-04T06:43:39.488Z,65.50
2017-04-04T06:44:37.167Z,65.30
2017-04-04T06:45:34.967Z,66.30
2017-04-04T06:46:32.627Z,66.00
2017-04-04T06:47:30.311Z,65.80
2017-04-04T06:48:28.031Z,65.40
2017-04-04T06:49:25.754Z,65.60
2017-04-04T06:50:23.855Z,65.90
2017-04-04T06:51:21.584Z,65.40
2017-04-04T06:52:19.278Z,64.90
2017-04-04T06:53:18.152Z,64.50
2017-04-04T06:54:16.049Z,64.90
2017-04-04T06:55:13.935Z,65.20
2017-04-04T06:56:11.763Z,65.10
2017-04-04T06:57:09.519Z,64.90
2017-04-04T06:58:07.321Z,65.20
2017-04-04T06:59:05.106Z,65.40
2017-04-04T07:00:02.851Z,64.90
2017-04-04T07:01:00.532Z,64.90
2017-04-04T07:01:58.312Z,63.60
2017-04-04T07:02:56.010Z,63.60
2017-04-04T07:03:53.670Z,64.00
2017-04-04T07:04:51.381Z,64.30
2017-04-04T07:05:49.451Z,63.70
2017-04-04T07:06:47.191Z,63.20
2017-04-04T07:07:44.879Z,63.00
2017-04-04T07:08:42.496Z,63.10
2017-04-04T07:09:40.142Z,63.30
2017-04-04T07:10:37.971Z,63.50
2017-04-04T07:11:35.591Z,63.50
2017-04-04T07:12:33.305Z,63.30
2017-04-04T07:13:31.001Z,63.20
2017-04-04T07:14:28.697Z,64.60
2017-04-04T07:15:26.430Z,64.20
2017-04-04T07:16:24.136Z,64.90
2017-04-04T07:17:21.819Z,65.40
2017-04-04T07:18:19.503Z,65.40
2017-04-04T07:19:17.175Z,66.50
2017-04-04T07:20:14.915Z,65.30
2017-04-04T07:21:12.626Z,64.70
2017-04-04T07:22:10.460Z,64.30
2017-04-04T07:23:08.124Z,65.20
2017-04-04T07:24:05.862Z,64.50
2017-04-04T07:25:03.607Z,64.80
2017-04-04T07:26:01.283Z,64.70
2017-04-04T07:26:58.944Z,65.10
2017-04-04T07:27:56.931Z,64.90
2017-04-04T07:28:54.623Z,64.50
2017-04-04T07:29:52.318Z,64.90
2017-04-04T07:30:50.312Z,65.20
2017-04-04T07:31:47.940Z,64.70
2017-04-04T07:32:45.614Z,64.90
2017-04-04T07:33:43.282Z,65.40
2017-04-04T07:34:40.983Z,64.30
2017-04-04T07:35:38.835Z,64.20
2017-04-04T07:36:36.503Z,64.90
2017-04-04T07:37:34.803Z,65.10
2017-04-04T07:38:32.500Z,65.20
2017-04-04T07:39:30.792Z,66.20
2017-04-04T07:40:28.542Z,64.80
2017-04-04T07:41:26.203Z,65.00
2017-04-04T07:42:23.910Z,65.00
2017-04-04T07:43:21.607Z,64.80
2017-04-04T07:44:19.295Z,64.60
2017-04-04T07:45:17.434Z,65.20
2017-04-04T07:46:15.099Z,64.60
2017-04-04T07:47:12.790Z,64.20
2017-04-04T07:48:10.447Z,64.40
2017-04-04T07:49:08.094Z,65.20
2017-04-04T07:50:06.083Z,65.50
2017-04-04T07:51:03.979Z,65.50
2017-04-04T07:52:01.884Z,65.30
2017-04-04T07:52:59.838Z,64.60
2017-04-04T07:53:58.485Z,64.80
2017-04-04T07:54:56.288Z,64.00
2017-04-04T07:55:54.466Z,64.10
2017-04-04T07:56:52.206Z,64.40
2017-04-04T07:57:49.888Z,63.60
2017-04-04T07:58:47.556Z,63.80
2017-04-04T07:59:45.176Z,64.10
2017-04-04T08:00:42.896Z,63.90
2017-04-04T08:01:40.799Z,65.00
2017-04-04T08:02:38.451Z,66.50
2017-04-04T08:03:36.095Z,65.80
2017-04-04T08:04:34.722Z,66.20
2017-04-04T08:05:32.452Z,65.60
2017-04-04T08:06:30.170Z,65.80
2017-04-04T08:07:28.166Z,65.30
2017-04-04T08:08:25.834Z,64.30
2017-04-04T08:09:23.545Z,63.50
2017-04-04T08:10:21.338Z,63.50
2017-04-04T08:11:18.994Z,62.70
2017-04-04T08:12:16.721Z,62.80
2017-04-04T08:13:14.464Z,62.30
2017-04-04T08:14:12.146Z,63.20
2017-04-04T08:15:11.460Z,62.40
2017-04-04T08:16:09.171Z,62.30
2017-04-04T08:17:06.826Z,61.40
2017-04-04T08:18:05.266Z,61.40
2017-04-04T08:19:03.418Z,61.30
2017-04-04T08:20:01.131Z,61.90
2017-04-04T08:20:58.903Z,62.60
2017-04-04T08:21:56.627Z,61.90
2017-04-04T08:22:54.326Z,62.10
2017-04-04T08:23:51.959Z,61.10
2017-04-04T08:24:49.667Z,61.90
2017-04-04T08:25:47.438Z,62.50
2017-04-04T08:26:45.070Z,62.90
2017-04-04T08:27:42.743Z,62.60
2017-04-04T08:28:40.423Z,63.00
2017-04-04T08:29:38.084Z,62.10
2017-04-04T08:30:35.844Z,62.30
2017-04-04T08:31:33.506Z,62.90
2017-04-04T08:32:31.158Z,61.70
2017-04-04T08:33:29.443Z,61.90
2017-04-04T08:34:27.091Z,60.50
2017-04-04T08:35:25.438Z,60.50
2017-04-04T08:36:23.167Z,60.70
2017-04-04T08:37:20.907Z,60.60
2017-04-04T08:38:18.570Z,60.70
2017-04-04T08:39:16.267Z,60.00
2017-04-04T08:40:14.020Z,60.10
2017-04-04T08:41:11.755Z,57.80
2017-04-04T08:42:09.450Z,58.30
2017-04-04T08:43:07.210Z,59.40
2017-04-04T08:44:04.863Z,59.70
2017-04-04T08:45:02.660Z,59.70
2017-04-04T08:46:00.351Z,58.20
2017-04-04T08:46:58.712Z,60.10
2017-04-04T08:47:56.367Z,59.90
2017-04-04T08:48:55.754Z,59.90
2017-04-04T08:49:53.424Z,59.40
2017-04-04T08:50:51.284Z,60.10
2017-04-04T08:51:49.042Z,60.50
2017-04-04T08:52:46.698Z,60.30
2017-04-04T08:53:44.398Z,60.30
2017-04-04T08:54:42.054Z,61.00
2017-04-04T08:55:40.619Z,60.20
2017-04-04T08:56:38.698Z,60.20
2017-04-04T08:57:36.392Z,61.60
2017-04-04T08:58:34.051Z,61.40
2017-04-04T08:59:31.747Z,61.00
2017-04-04T09:00:29.515Z,61.20
2017-04-04T09:01:27.211Z,60.60
2017-04-04T09:02:24.916Z,60.20
2017-04-04T09:03:22.603Z,59.20
2017-04-04T09:04:20.343Z,58.10
2017-04-04T09:05:18.468Z,58.10
2017-04-04T09:06:16.187Z,58.40
2017-04-04T09:07:13.860Z,59.50
2017-04-04T09:08:11.522Z,58.40
2017-04-04T09:09:09.202Z,57.50
2017-04-04T09:10:07.441Z,58.70
2017-04-04T09:11:05.891Z,58.00
2017-04-04T09:12:03.620Z,56.50
2017-04-04T09:13:01.344Z,57.50
2017-04-04T09:13:59.026Z,57.70
2017-04-04T09:14:56.744Z,56.80
2017-04-04T09:15:54.771Z,58.40
2017-04-04T09:16:52.461Z,55.60
2017-04-04T09:17:50.155Z,56.30
2017-04-04T09:18:47.862Z,58.00
2017-04-04T09:19:45.495Z,58.80
2017-04-04T09:20:43.227Z,57.90
2017-04-04T09:21:41.004Z,55.40
2017-04-04T09:22:38.671Z,55.10
2017-04-04T09:23:36.351Z,56.70
2017-04-04T09:24:34.038Z,54.30
2017-04-04T09:25:31.791Z,55.50
2017-04-04T09:26:29.514Z,52.50
2017-04-04T09:27:27.463Z,52.20
2017-04-04T09:28:25.274Z,52.80
2017-04-04T09:29:22.970Z,53.20
2017-04-04T09:30:20.695Z,54.20
2017-04-04T09:31:18.379Z,53.10
2017-04-04T09:32:16.107Z,53.50
2017-04-04T09:33:13.852Z,54.30
2017-04-04T09:34:11.536Z,54.60
2017-04-04T09:35:09.547Z,54.20
2017-04-04T09:36:07.247Z,53.70
2017-04-04T09:37:04.912Z,55.50
2017-04-04T09:38:02.616Z,55.90
2017-04-04T09:39:00.638Z,54.70
2017-04-04T09:39:58.291Z,55.00
2017-04-04T09:40:56.392Z,55.00
2017-04-04T09:41:54.116Z,54.70
2017-04-04T09:42:51.813Z,54.70
2017-04-04T09:43:50.160Z,54.30
2017-04-04T09:44:47.913Z,54.40
2017-04-04T09:45:45.663Z,54.90
2017-04-04T09:46:44.243Z,56.40
2017-04-04T09:47:41.930Z,56.00
2017-04-04T09:48:39.635Z,54.70
2017-04-04T09:49:37.287Z,56.50
2017-04-04T09:50:35.309Z,55.20
2017-04-04T09:51:33.018Z,54.20
2017-04-04T09:52:31.236Z,55.60
2017-04-04T09:53:28.960Z,57.30
2017-04-04T09:54:26.594Z,56.90
2017-04-04T09:55:24.380Z,55.40
2017-04-04T09:56:22.023Z,54.80
2017-04-04T09:57:19.690Z,54.20
2017-04-04T09:58:17.426Z,52.50
2017-04-04T09:59:15.727Z,54.30
2017-04-04T10:00:13.748Z,53.00
2017-04-04T10:01:11.443Z,52.60
2017-04-04T10:02:09.079Z,53.60
2017-04-04T10:03:07.638Z,51.90
2017-04-04T10:04:06.106Z,50.10
2017-04-04T10:05:04.367Z,52.10
2017-04-04T10:06:03.472Z,52.30
2017-04-04T10:07:02.220Z,53.00
2017-04-04T10:08:00.491Z,49.30
2017-04-04T10:08:59.035Z,49.30
2017-04-04T10:09:56.691Z,50.50
2017-04-04T10:10:54.402Z,50.00
2017-04-04T10:11:52.052Z,51.30
2017-04-04T10:12:50.116Z,54.00
2017-04-04T10:13:47.826Z,51.70
2017-04-04T10:14:45.511Z,50.00
2017-04-04T10:15:43.280Z,50.00
2017-04-04T10:16:40.977Z,50.70
2017-04-04T10:17:38.683Z,50.90
2017-04-04T10:18:36.787Z,47.20
2017-04-04T10:19:34.821Z,47.30
2017-04-04T10:20:32.939Z,46.80
2017-04-04T10:21:31.006Z,46.60
2017-04-04T10:22:28.710Z,47.30
2017-04-04T10:23:27.634Z,46.10
2017-04-04T10:24:26.310Z,48.30
2017-04-04T10:25:24.039Z,47.80
2017-04-04T10:26:22.039Z,47.40
2017-04-04T10:27:19.723Z,49.10
2017-04-04T10:28:17.444Z,48.60
2017-04-04T10:29:15.107Z,48.80
2017-04-04T10:30:13.359Z,49.30
2017-04-04T10:31:11.050Z,50.40
2017-04-04T10:32:09.151Z,52.40
2017-04-04T10:33:06.835Z,51.10
2017-04-04T10:34:04.527Z,53.00
2017-04-04T10:35:02.209Z,53.40
2017-04-04T10:35:59.855Z,53.80
2017-04-04T10:36:57.516Z,54.80
2017-04-04T10:37:55.741Z,53.40
2017-04-04T10:38:53.395Z,54.40
2017-04-04T10:39:51.069Z,55.20
2017-04-04T10:40:48.812Z,55.40
2017-04-04T10:41:46.440Z,55.60
2017-04-04T10:42:44.112Z,55.00
2017-04-04T10:43:42.057Z,54.80
2017-04-04T10:44:39.748Z,54.70
2017-04-04T10:45:37.488Z,55.00
2017-04-04T10:46:35.199Z,55.50
2017-04-04T10:47:32.924Z,55.20
2017-04-04T10:48:30.583Z,54.20
2017-04-04T10:49:28.227Z,54.30
2017-04-04T10:50:26.334Z,54.60
2017-04-04T10:51:23.963Z,54.70
2017-04-04T10:52:21.719Z,54.30
2017-04-04T10:53:19.415Z,54.50
2017-04-04T10:54:17.075Z,54.70
2017-04-04T10:55:14.843Z,55.20
2017-04-04T10:56:13.202Z,56.10
2017-04-04T10:57:11.383Z,54.70
2017-04-04T10:58:12.704Z,55.20
2017-04-04T10:59:10.354Z,54.00
2017-04-04T11:00:08.122Z,54.30
2017-04-04T11:01:05.807Z,55.80
2017-04-04T11:02:03.513Z,56.30
2017-04-04T11:03:01.175Z,54.80
2017-04-04T11:03:59.802Z,56.20
2017-04-04T11:04:57.411Z,55.80
2017-04-04T11:05:55.152Z,55.20
2017-04-04T11:06:53.414Z,54.90
2017-04-04T11:07:51.144Z,54.10
2017-04-04T11:08:48.794Z,54.70
2017-04-04T11:09:46.525Z,52.40
2017-04-04T11:10:44.705Z,51.70
2017-04-04T11:11:42.428Z,48.80
2017-04-04T11:12:40.125Z,46.40
2017-04-04T11:13:37.799Z,44.50
2017-04-04T11:14:35.494Z,43.10
2017-04-04T11:15:33.216Z,42.90
2017-04-04T11:16:32.051Z,42.10
2017-04-04T11:17:29.742Z,41.80
2017-04-04T11:18:27.434Z,41.20
2017-04-04T11:19:25.116Z,42.40
2017-04-04T11:20:23.274Z,41.50
2017-04-04T11:21:21.042Z,41.10
2017-04-04T11:22:18.718Z,42.20
2017-04-04T11:23:16.471Z,42.70
2017-04-04T11:24:14.520Z,42.70
2017-04-04T11:25:12.607Z,42.90
2017-04-04T11:26:10.290Z,42.50
2017-04-04T11:27:07.983Z,41.80
2017-04-04T11:28:05.665Z,42.20
2017-04-04T11:29:03.382Z,42.20
2017-04-04T11:30:01.120Z,43.60
2017-04-04T11:30:58.843Z,43.20
2017-04-04T11:31:56.510Z,42.20
2017-04-04T11:32:54.151Z,42.00
2017-04-04T11:33:51.841Z,43.10
2017-04-04T11:34:49.466Z,41.30
2017-04-04T11:35:48.015Z,39.90
2017-04-04T11:36:45.672Z,38.30
2017-04-04T11:37:43.342Z,37.80
2017-04-04T11:38:41.023Z,38.00
2017-04-04T11:39:38.707Z,37.20
2017-04-04T11:40:36.455Z,37.30
2017-04-04T11:41:34.150Z,36.70
2017-04-04T11:42:32.154Z,36.80
2017-04-04T11:43:29.870Z,36.80
2017-04-04T11:44:28.222Z,37.20
2017-04-04T11:45:25.983Z,37.60
2017-04-04T11:46:23.683Z,37.90
2017-04-04T11:47:21.576Z,38.10
2017-04-04T11:48:19.292Z,37.60
2017-04-04T11:49:16.942Z,36.50
2017-04-04T11:50:14.706Z,34.70
2017-04-04T11:51:12.349Z,34.20
2017-04-04T11:52:10.100Z,33.90
2017-04-04T11:53:08.300Z,31.90
2017-04-04T11:54:06.496Z,29.90
2017-04-04T11:55:05.267Z,29.10
2017-04-04T11:56:02.981Z,27.90
2017-04-04T11:57:00.655Z,27.70
2017-04-04T11:57:58.337Z,27.80
2017-04-04T11:58:56.055Z,27.00
2017-04-04T11:59:54.487Z,26.90
2017-04-04T12:00:52.986Z,28.20
2017-04-04T12:01:50.670Z,28.50
2017-04-04T12:02:48.395Z,30.00
2017-04-04T12:03:46.037Z,30.60
2017-04-04T12:04:43.738Z,30.80
2017-04-04T12:05:41.455Z,31.80
2017-04-04T12:06:39.142Z,33.30
2017-04-04T12:07:36.794Z,35.30
2017-04-04T12:08:34.583Z,37.00
2017-04-04T12:09:32.213Z,38.30
2017-04-04T12:10:30.299Z,39.00
2017-04-04T12:11:27.943Z,40.50
2017-04-04T12:12:25.648Z,40.90
2017-04-04T12:13:23.295Z,42.30
2017-04-04T12:14:21.020Z,43.60
2017-04-04T12:15:18.720Z,45.50
2017-04-04T12:16:17.906Z,46.60
2017-04-04T12:17:16.479Z,45.80
2017-04-04T12:18:14.187Z,48.70
2017-04-04T12:19:11.847Z,48.10
2017-04-04T12:20:09.767Z,50.70
2017-04-04T12:21:07.440Z,50.20
2017-04-04T12:22:06.094Z,50.90
2017-04-04T12:23:03.799Z,50.50
2017-04-04T12:24:01.503Z,53.20
2017-04-04T12:24:59.159Z,52.90
2017-04-04T12:25:57.907Z,53.30
2017-04-04T12:26:55.590Z,55.70
2017-04-04T12:27:53.212Z,54.70
2017-04-04T12:28:51.731Z,52.70
2017-04-04T12:29:49.480Z,51.30
2017-04-04T12:30:47.691Z,52.50
2017-04-04T12:31:45.430Z,53.30